sensor_id;sensor_type;location;lat;lon;timestamp;P1;durP1;ratioP1;P2;durP2;ratioP2
77453;SDS011;66538;53.150;18.160;2023-05-07T00:01:28;12.70;;;7.10;;
77453;SDS011;66538;53.150;18.160;2023-05-07T00:03:54;12.70;;;7.30;;
77453;SDS011;66538;53.150;18.160;2023-05-07T00:06:21;13.20;;;7.90;;
77453;SDS011;66538;53.150;18.160;2023-05-07T00:08:47;12.10;;;7.70;;
77453;SDS011;66538;53.150;18.160;2023-05-07T00:11:14;14.70;;;8.10;;
77453;SDS011;66538;53.150;18.160;2023-05-07T00:13:41;12.90;;;7.50;;
77453;SDS011;66538;53.150;18.160;2023-05-07T00:16:07;14.10;;;7.10;;
77453;SDS011;66538;53.150;18.160;2023-05-07T00:18:34;13.10;;;7.00;;
77453;SDS011;66538;53.150;18.160;2023-05-07T00:21:01;14.90;;;7.60;;
77453;SDS011;66538;53.150;18.160;2023-05-07T00:23:27;13.90;;;7.10;;
77453;SDS011;66538;53.150;18.160;2023-05-07T00:25:54;14.30;;;6.70;;
77453;SDS011;66538;53.150;18.160;2023-05-07T00:28:21;14.20;;;8.10;;
77453;SDS011;66538;53.150;18.160;2023-05-07T00:30:47;15.00;;;7.90;;
77453;SDS011;66538;53.150;18.160;2023-05-07T00:33:14;13.90;;;8.10;;
77453;SDS011;66538;53.150;18.160;2023-05-07T00:35:41;14.80;;;8.00;;
77453;SDS011;66538;53.150;18.160;2023-05-07T00:38:08;14.20;;;7.90;;
77453;SDS011;66538;53.150;18.160;2023-05-07T00:40:35;13.20;;;7.10;;
77453;SDS011;66538;53.150;18.160;2023-05-07T00:43:01;12.90;;;7.20;;
77453;SDS011;66538;53.150;18.160;2023-05-07T00:45:28;12.50;;;7.30;;
77453;SDS011;66538;53.150;18.160;2023-05-07T00:47:55;13.40;;;7.10;;
77453;SDS011;66538;53.150;18.160;2023-05-07T00:50:24;14.20;;;7.20;;
77453;SDS011;66538;53.150;18.160;2023-05-07T00:52:53;14.00;;;6.50;;
77453;SDS011;66538;53.150;18.160;2023-05-07T00:55:20;10.60;;;5.70;;
77453;SDS011;66538;53.150;18.160;2023-05-07T00:57:48;13.00;;;7.90;;
77453;SDS011;66538;53.150;18.160;2023-05-07T01:00:16;13.60;;;7.60;;
77453;SDS011;66538;53.150;18.160;2023-05-07T01:02:44;15.90;;;8.40;;
77453;SDS011;66538;53.150;18.160;2023-05-07T01:05:11;9.20;;;5.50;;
77453;SDS011;66538;53.150;18.160;2023-05-07T01:07:40;14.70;;;8.10;;
77453;SDS011;66538;53.150;18.160;2023-05-07T01:10:08;15.00;;;7.00;;
77453;SDS011;66538;53.150;18.160;2023-05-07T01:12:37;14.50;;;7.50;;
77453;SDS011;66538;53.150;18.160;2023-05-07T01:15:05;12.60;;;6.90;;
77453;SDS011;66538;53.150;18.160;2023-05-07T01:20:24;12.10;;;6.30;;
77453;SDS011;66538;53.150;18.160;2023-05-07T01:22:53;13.20;;;6.50;;
77453;SDS011;66538;53.150;18.160;2023-05-07T01:25:19;17.30;;;8.20;;
77453;SDS011;66538;53.150;18.160;2023-05-07T01:27:49;13.90;;;7.40;;
77453;SDS011;66538;53.150;18.160;2023-05-07T01:30:16;14.70;;;8.70;;
77453;SDS011;66538;53.150;18.160;2023-05-07T01:32:48;15.50;;;8.50;;
77453;SDS011;66538;53.150;18.160;2023-05-07T01:35:20;16.50;;;8.50;;
77453;SDS011;66538;53.150;18.160;2023-05-07T01:37:48;13.60;;;7.10;;
77453;SDS011;66538;53.150;18.160;2023-05-07T01:40:16;13.60;;;7.80;;
77453;SDS011;66538;53.150;18.160;2023-05-07T01:42:43;13.60;;;7.80;;
77453;SDS011;66538;53.150;18.160;2023-05-07T01:45:10;13.50;;;7.50;;
77453;SDS011;66538;53.150;18.160;2023-05-07T01:47:38;12.40;;;6.70;;
77453;SDS011;66538;53.150;18.160;2023-05-07T01:50:06;16.00;;;9.50;;
77453;SDS011;66538;53.150;18.160;2023-05-07T01:52:34;16.40;;;7.80;;
77453;SDS011;66538;53.150;18.160;2023-05-07T01:55:01;13.50;;;6.30;;
77453;SDS011;66538;53.150;18.160;2023-05-07T01:57:27;14.60;;;7.80;;
77453;SDS011;66538;53.150;18.160;2023-05-07T01:59:54;13.00;;;7.30;;
77453;SDS011;66538;53.150;18.160;2023-05-07T02:02:21;14.20;;;7.60;;
77453;SDS011;66538;53.150;18.160;2023-05-07T02:04:47;15.30;;;7.70;;
77453;SDS011;66538;53.150;18.160;2023-05-07T02:07:15;15.40;;;8.30;;
77453;SDS011;66538;53.150;18.160;2023-05-07T02:09:42;16.00;;;8.70;;
77453;SDS011;66538;53.150;18.160;2023-05-07T02:12:08;14.70;;;9.00;;
77453;SDS011;66538;53.150;18.160;2023-05-07T02:14:35;12.80;;;7.50;;
77453;SDS011;66538;53.150;18.160;2023-05-07T02:17:02;15.70;;;9.00;;
77453;SDS011;66538;53.150;18.160;2023-05-07T02:19:29;14.00;;;8.40;;
77453;SDS011;66538;53.150;18.160;2023-05-07T02:21:55;15.60;;;8.30;;
77453;SDS011;66538;53.150;18.160;2023-05-07T02:24:22;20.80;;;10.70;;
77453;SDS011;66538;53.150;18.160;2023-05-07T02:26:49;14.40;;;8.20;;
77453;SDS011;66538;53.150;18.160;2023-05-07T02:29:15;19.60;;;11.30;;
77453;SDS011;66538;53.150;18.160;2023-05-07T02:31:42;19.50;;;10.20;;
77453;SDS011;66538;53.150;18.160;2023-05-07T02:34:09;19.20;;;10.10;;
77453;SDS011;66538;53.150;18.160;2023-05-07T02:36:35;16.40;;;8.90;;
77453;SDS011;66538;53.150;18.160;2023-05-07T02:39:06;18.90;;;11.10;;
77453;SDS011;66538;53.150;18.160;2023-05-07T02:41:33;16.80;;;8.50;;
77453;SDS011;66538;53.150;18.160;2023-05-07T02:44:00;21.30;;;11.50;;
77453;SDS011;66538;53.150;18.160;2023-05-07T02:46:26;19.70;;;10.80;;
77453;SDS011;66538;53.150;18.160;2023-05-07T02:48:59;17.20;;;9.70;;
77453;SDS011;66538;53.150;18.160;2023-05-07T02:51:26;21.30;;;11.50;;
77453;SDS011;66538;53.150;18.160;2023-05-07T02:53:54;19.10;;;11.50;;
77453;SDS011;66538;53.150;18.160;2023-05-07T02:56:21;21.30;;;10.70;;
77453;SDS011;66538;53.150;18.160;2023-05-07T02:58:48;20.60;;;10.30;;
77453;SDS011;66538;53.150;18.160;2023-05-07T03:01:15;16.90;;;11.00;;
77453;SDS011;66538;53.150;18.160;2023-05-07T03:03:49;17.00;;;9.90;;
77453;SDS011;66538;53.150;18.160;2023-05-07T03:06:16;18.50;;;10.20;;
77453;SDS011;66538;53.150;18.160;2023-05-07T03:08:43;18.60;;;11.20;;
77453;SDS011;66538;53.150;18.160;2023-05-07T03:11:10;20.50;;;11.20;;
77453;SDS011;66538;53.150;18.160;2023-05-07T03:13:36;19.90;;;11.20;;
77453;SDS011;66538;53.150;18.160;2023-05-07T03:16:03;14.80;;;8.50;;
77453;SDS011;66538;53.150;18.160;2023-05-07T03:18:30;21.10;;;12.20;;
77453;SDS011;66538;53.150;18.160;2023-05-07T03:20:57;17.90;;;10.30;;
77453;SDS011;66538;53.150;18.160;2023-05-07T03:23:23;18.80;;;10.90;;
77453;SDS011;66538;53.150;18.160;2023-05-07T03:25:50;21.50;;;12.90;;
77453;SDS011;66538;53.150;18.160;2023-05-07T03:28:16;16.80;;;9.60;;
77453;SDS011;66538;53.150;18.160;2023-05-07T03:30:50;15.00;;;10.00;;
77453;SDS011;66538;53.150;18.160;2023-05-07T03:33:17;16.40;;;9.30;;
77453;SDS011;66538;53.150;18.160;2023-05-07T03:35:44;16.60;;;9.10;;
77453;SDS011;66538;53.150;18.160;2023-05-07T03:38:10;14.30;;;8.50;;
77453;SDS011;66538;53.150;18.160;2023-05-07T03:40:37;14.30;;;8.90;;
77453;SDS011;66538;53.150;18.160;2023-05-07T03:43:04;12.20;;;8.10;;
77453;SDS011;66538;53.150;18.160;2023-05-07T03:45:31;18.50;;;10.20;;
77453;SDS011;66538;53.150;18.160;2023-05-07T03:48:06;18.30;;;8.90;;
77453;SDS011;66538;53.150;18.160;2023-05-07T03:50:33;17.40;;;9.60;;
77453;SDS011;66538;53.150;18.160;2023-05-07T03:53:00;14.70;;;8.80;;
77453;SDS011;66538;53.150;18.160;2023-05-07T03:55:27;15.80;;;8.70;;
77453;SDS011;66538;53.150;18.160;2023-05-07T03:57:57;16.30;;;9.00;;
77453;SDS011;66538;53.150;18.160;2023-05-07T04:00:25;14.50;;;8.10;;
77453;SDS011;66538;53.150;18.160;2023-05-07T04:02:52;17.80;;;9.30;;
77453;SDS011;66538;53.150;18.160;2023-05-07T04:05:24;15.40;;;8.70;;
77453;SDS011;66538;53.150;18.160;2023-05-07T04:07:53;15.30;;;8.10;;
77453;SDS011;66538;53.150;18.160;2023-05-07T04:10:24;18.30;;;10.10;;
77453;SDS011;66538;53.150;18.160;2023-05-07T04:12:52;18.70;;;10.00;;
77453;SDS011;66538;53.150;18.160;2023-05-07T04:15:20;16.80;;;9.30;;
77453;SDS011;66538;53.150;18.160;2023-05-07T04:17:47;17.60;;;9.70;;
77453;SDS011;66538;53.150;18.160;2023-05-07T04:20:15;16.00;;;8.80;;
77453;SDS011;66538;53.150;18.160;2023-05-07T04:22:43;13.40;;;8.50;;
77453;SDS011;66538;53.150;18.160;2023-05-07T04:25:10;14.20;;;7.20;;
77453;SDS011;66538;53.150;18.160;2023-05-07T04:27:37;14.40;;;8.50;;
77453;SDS011;66538;53.150;18.160;2023-05-07T04:30:04;14.30;;;7.90;;
77453;SDS011;66538;53.150;18.160;2023-05-07T04:32:35;11.50;;;6.90;;
77453;SDS011;66538;53.150;18.160;2023-05-07T04:35:03;18.50;;;10.60;;
77453;SDS011;66538;53.150;18.160;2023-05-07T04:37:33;13.60;;;7.90;;
77453;SDS011;66538;53.150;18.160;2023-05-07T04:40:01;16.60;;;9.30;;
77453;SDS011;66538;53.150;18.160;2023-05-07T04:42:29;15.90;;;9.20;;
77453;SDS011;66538;53.150;18.160;2023-05-07T04:44:56;14.40;;;8.00;;
77453;SDS011;66538;53.150;18.160;2023-05-07T04:47:23;14.60;;;8.30;;
77453;SDS011;66538;53.150;18.160;2023-05-07T04:49:50;12.10;;;7.20;;
77453;SDS011;66538;53.150;18.160;2023-05-07T04:52:17;15.90;;;9.70;;
77453;SDS011;66538;53.150;18.160;2023-05-07T04:54:44;15.50;;;9.20;;
77453;SDS011;66538;53.150;18.160;2023-05-07T04:57:11;14.90;;;8.40;;
77453;SDS011;66538;53.150;18.160;2023-05-07T04:59:39;18.60;;;9.60;;
77453;SDS011;66538;53.150;18.160;2023-05-07T05:02:06;13.20;;;7.90;;
77453;SDS011;66538;53.150;18.160;2023-05-07T05:04:33;12.80;;;6.50;;
77453;SDS011;66538;53.150;18.160;2023-05-07T05:07:00;14.00;;;7.90;;
77453;SDS011;66538;53.150;18.160;2023-05-07T05:09:28;14.00;;;7.60;;
77453;SDS011;66538;53.150;18.160;2023-05-07T05:11:54;13.40;;;8.60;;
77453;SDS011;66538;53.150;18.160;2023-05-07T05:14:22;14.50;;;8.00;;
77453;SDS011;66538;53.150;18.160;2023-05-07T05:16:48;15.80;;;9.70;;
77453;SDS011;66538;53.150;18.160;2023-05-07T05:19:15;13.40;;;8.20;;
77453;SDS011;66538;53.150;18.160;2023-05-07T05:21:44;15.00;;;7.90;;
77453;SDS011;66538;53.150;18.160;2023-05-07T05:24:11;15.50;;;8.90;;
77453;SDS011;66538;53.150;18.160;2023-05-07T05:26:38;16.50;;;8.60;;
77453;SDS011;66538;53.150;18.160;2023-05-07T05:29:05;14.90;;;8.50;;
77453;SDS011;66538;53.150;18.160;2023-05-07T05:31:32;12.80;;;8.00;;
77453;SDS011;66538;53.150;18.160;2023-05-07T05:34:00;14.00;;;8.10;;
77453;SDS011;66538;53.150;18.160;2023-05-07T05:36:26;12.50;;;7.50;;
77453;SDS011;66538;53.150;18.160;2023-05-07T05:38:55;12.90;;;7.30;;
77453;SDS011;66538;53.150;18.160;2023-05-07T05:41:22;12.50;;;6.30;;
77453;SDS011;66538;53.150;18.160;2023-05-07T05:43:48;14.60;;;8.20;;
77453;SDS011;66538;53.150;18.160;2023-05-07T05:46:16;12.00;;;6.80;;
77453;SDS011;66538;53.150;18.160;2023-05-07T05:48:43;13.80;;;7.60;;
77453;SDS011;66538;53.150;18.160;2023-05-07T05:51:10;14.70;;;7.50;;
77453;SDS011;66538;53.150;18.160;2023-05-07T05:53:37;15.30;;;8.80;;
77453;SDS011;66538;53.150;18.160;2023-05-07T05:56:05;13.80;;;7.60;;
77453;SDS011;66538;53.150;18.160;2023-05-07T05:58:33;13.90;;;7.90;;
77453;SDS011;66538;53.150;18.160;2023-05-07T06:01:02;14.40;;;8.00;;
77453;SDS011;66538;53.150;18.160;2023-05-07T06:03:29;15.90;;;9.70;;
77453;SDS011;66538;53.150;18.160;2023-05-07T06:05:58;12.90;;;7.40;;
77453;SDS011;66538;53.150;18.160;2023-05-07T06:08:28;15.30;;;7.90;;
77453;SDS011;66538;53.150;18.160;2023-05-07T06:10:55;12.60;;;7.30;;
77453;SDS011;66538;53.150;18.160;2023-05-07T06:13:23;13.90;;;8.60;;
77453;SDS011;66538;53.150;18.160;2023-05-07T06:15:50;13.10;;;8.40;;
77453;SDS011;66538;53.150;18.160;2023-05-07T06:18:17;14.30;;;8.40;;
77453;SDS011;66538;53.150;18.160;2023-05-07T06:20:43;11.20;;;6.30;;
77453;SDS011;66538;53.150;18.160;2023-05-07T06:23:14;14.00;;;7.90;;
77453;SDS011;66538;53.150;18.160;2023-05-07T06:25:41;14.20;;;8.70;;
77453;SDS011;66538;53.150;18.160;2023-05-07T06:28:08;13.60;;;7.50;;
77453;SDS011;66538;53.150;18.160;2023-05-07T06:30:39;13.50;;;7.70;;
77453;SDS011;66538;53.150;18.160;2023-05-07T06:33:07;13.40;;;7.80;;
77453;SDS011;66538;53.150;18.160;2023-05-07T06:35:33;13.00;;;7.60;;
77453;SDS011;66538;53.150;18.160;2023-05-07T06:38:00;10.10;;;6.00;;
77453;SDS011;66538;53.150;18.160;2023-05-07T06:40:28;11.20;;;6.80;;
77453;SDS011;66538;53.150;18.160;2023-05-07T06:42:55;12.50;;;7.20;;
77453;SDS011;66538;53.150;18.160;2023-05-07T06:45:28;11.60;;;6.10;;
77453;SDS011;66538;53.150;18.160;2023-05-07T06:47:55;8.30;;;5.20;;
77453;SDS011;66538;53.150;18.160;2023-05-07T06:50:22;9.90;;;5.60;;
77453;SDS011;66538;53.150;18.160;2023-05-07T06:52:49;13.00;;;6.20;;
77453;SDS011;66538;53.150;18.160;2023-05-07T06:55:16;10.40;;;5.60;;
77453;SDS011;66538;53.150;18.160;2023-05-07T06:57:43;7.90;;;4.30;;
77453;SDS011;66538;53.150;18.160;2023-05-07T07:00:10;8.60;;;4.70;;
77453;SDS011;66538;53.150;18.160;2023-05-07T07:02:44;7.70;;;4.20;;
77453;SDS011;66538;53.150;18.160;2023-05-07T07:05:11;8.40;;;5.00;;
77453;SDS011;66538;53.150;18.160;2023-05-07T07:07:38;8.00;;;4.00;;
77453;SDS011;66538;53.150;18.160;2023-05-07T07:10:05;8.20;;;4.30;;
77453;SDS011;66538;53.150;18.160;2023-05-07T07:12:32;10.50;;;3.90;;
77453;SDS011;66538;53.150;18.160;2023-05-07T07:14:59;8.00;;;3.60;;
77453;SDS011;66538;53.150;18.160;2023-05-07T07:17:26;7.30;;;3.70;;
77453;SDS011;66538;53.150;18.160;2023-05-07T07:22:21;6.30;;;3.30;;
77453;SDS011;66538;53.150;18.160;2023-05-07T07:24:48;8.30;;;3.60;;
77453;SDS011;66538;53.150;18.160;2023-05-07T07:27:16;6.30;;;3.40;;
77453;SDS011;66538;53.150;18.160;2023-05-07T07:29:42;6.80;;;3.50;;
77453;SDS011;66538;53.150;18.160;2023-05-07T07:32:09;5.40;;;2.60;;
77453;SDS011;66538;53.150;18.160;2023-05-07T07:34:36;5.70;;;3.10;;
77453;SDS011;66538;53.150;18.160;2023-05-07T07:37:02;5.60;;;2.70;;
77453;SDS011;66538;53.150;18.160;2023-05-07T07:39:32;5.10;;;2.50;;
77453;SDS011;66538;53.150;18.160;2023-05-07T07:41:59;5.90;;;2.80;;
77453;SDS011;66538;53.150;18.160;2023-05-07T07:44:28;8.70;;;3.80;;
77453;SDS011;66538;53.150;18.160;2023-05-07T07:46:58;6.10;;;2.80;;
77453;SDS011;66538;53.150;18.160;2023-05-07T07:49:25;4.80;;;2.70;;
77453;SDS011;66538;53.150;18.160;2023-05-07T07:51:53;6.90;;;3.10;;
77453;SDS011;66538;53.150;18.160;2023-05-07T07:54:19;10.40;;;4.50;;
77453;SDS011;66538;53.150;18.160;2023-05-07T07:56:46;7.20;;;3.40;;
77453;SDS011;66538;53.150;18.160;2023-05-07T07:59:13;7.30;;;2.90;;
77453;SDS011;66538;53.150;18.160;2023-05-07T08:01:44;6.40;;;2.90;;
77453;SDS011;66538;53.150;18.160;2023-05-07T08:04:11;6.10;;;2.90;;
77453;SDS011;66538;53.150;18.160;2023-05-07T08:06:40;6.40;;;3.10;;
77453;SDS011;66538;53.150;18.160;2023-05-07T08:09:07;5.90;;;2.60;;
77453;SDS011;66538;53.150;18.160;2023-05-07T08:11:33;7.10;;;2.80;;
77453;SDS011;66538;53.150;18.160;2023-05-07T08:14:01;5.50;;;2.50;;
77453;SDS011;66538;53.150;18.160;2023-05-07T08:16:28;5.20;;;2.60;;
77453;SDS011;66538;53.150;18.160;2023-05-07T08:18:55;5.00;;;2.30;;
77453;SDS011;66538;53.150;18.160;2023-05-07T08:21:22;6.50;;;2.90;;
77453;SDS011;66538;53.150;18.160;2023-05-07T08:23:49;5.90;;;2.90;;
77453;SDS011;66538;53.150;18.160;2023-05-07T08:26:17;7.30;;;3.70;;
77453;SDS011;66538;53.150;18.160;2023-05-07T08:28:44;7.00;;;3.30;;
77453;SDS011;66538;53.150;18.160;2023-05-07T08:31:10;7.00;;;3.10;;
77453;SDS011;66538;53.150;18.160;2023-05-07T08:33:39;5.10;;;2.40;;
77453;SDS011;66538;53.150;18.160;2023-05-07T08:36:05;4.20;;;2.10;;
77453;SDS011;66538;53.150;18.160;2023-05-07T08:38:33;7.30;;;2.70;;
77453;SDS011;66538;53.150;18.160;2023-05-07T08:40:59;5.50;;;2.60;;
77453;SDS011;66538;53.150;18.160;2023-05-07T08:43:26;5.00;;;2.70;;
77453;SDS011;66538;53.150;18.160;2023-05-07T08:45:54;4.70;;;2.30;;
77453;SDS011;66538;53.150;18.160;2023-05-07T08:48:27;5.60;;;2.50;;
77453;SDS011;66538;53.150;18.160;2023-05-07T08:51:04;5.10;;;2.60;;
77453;SDS011;66538;53.150;18.160;2023-05-07T08:53:32;5.30;;;2.80;;
77453;SDS011;66538;53.150;18.160;2023-05-07T08:56:00;4.90;;;2.40;;
77453;SDS011;66538;53.150;18.160;2023-05-07T08:58:28;4.80;;;2.10;;
77453;SDS011;66538;53.150;18.160;2023-05-07T09:00:55;3.50;;;1.70;;
77453;SDS011;66538;53.150;18.160;2023-05-07T09:03:22;4.40;;;2.00;;
77453;SDS011;66538;53.150;18.160;2023-05-07T09:05:50;5.40;;;2.30;;
77453;SDS011;66538;53.150;18.160;2023-05-07T09:08:17;4.70;;;2.20;;
77453;SDS011;66538;53.150;18.160;2023-05-07T09:10:45;5.30;;;2.10;;
77453;SDS011;66538;53.150;18.160;2023-05-07T09:13:14;5.70;;;3.00;;
77453;SDS011;66538;53.150;18.160;2023-05-07T09:15:42;5.90;;;2.80;;
77453;SDS011;66538;53.150;18.160;2023-05-07T09:18:09;6.40;;;3.50;;
77453;SDS011;66538;53.150;18.160;2023-05-07T09:20:36;5.20;;;2.70;;
77453;SDS011;66538;53.150;18.160;2023-05-07T09:23:04;5.50;;;2.60;;
77453;SDS011;66538;53.150;18.160;2023-05-07T09:25:31;4.90;;;2.40;;
77453;SDS011;66538;53.150;18.160;2023-05-07T09:28:03;7.30;;;3.90;;
77453;SDS011;66538;53.150;18.160;2023-05-07T09:30:31;7.10;;;3.90;;
77453;SDS011;66538;53.150;18.160;2023-05-07T09:32:59;8.80;;;4.50;;
77453;SDS011;66538;53.150;18.160;2023-05-07T09:35:27;6.20;;;3.30;;
77453;SDS011;66538;53.150;18.160;2023-05-07T09:37:58;4.60;;;2.30;;
77453;SDS011;66538;53.150;18.160;2023-05-07T09:40:27;5.80;;;3.00;;
77453;SDS011;66538;53.150;18.160;2023-05-07T09:43:07;5.90;;;3.10;;
77453;SDS011;66538;53.150;18.160;2023-05-07T09:45:35;5.20;;;2.60;;
77453;SDS011;66538;53.150;18.160;2023-05-07T09:48:03;5.60;;;2.90;;
77453;SDS011;66538;53.150;18.160;2023-05-07T09:50:32;5.30;;;2.90;;
77453;SDS011;66538;53.150;18.160;2023-05-07T09:53:03;4.90;;;2.70;;
77453;SDS011;66538;53.150;18.160;2023-05-07T09:55:30;5.70;;;3.00;;
77453;SDS011;66538;53.150;18.160;2023-05-07T09:57:57;6.00;;;3.00;;
77453;SDS011;66538;53.150;18.160;2023-05-07T10:00:26;3.90;;;1.80;;
77453;SDS011;66538;53.150;18.160;2023-05-07T10:02:58;6.10;;;3.30;;
77453;SDS011;66538;53.150;18.160;2023-05-07T10:05:34;4.80;;;2.80;;
77453;SDS011;66538;53.150;18.160;2023-05-07T10:08:02;5.70;;;3.00;;
77453;SDS011;66538;53.150;18.160;2023-05-07T10:10:29;5.10;;;2.80;;
77453;SDS011;66538;53.150;18.160;2023-05-07T10:13:00;5.70;;;2.70;;
77453;SDS011;66538;53.150;18.160;2023-05-07T10:15:31;5.00;;;2.40;;
77453;SDS011;66538;53.150;18.160;2023-05-07T10:17:59;6.10;;;2.90;;
77453;SDS011;66538;53.150;18.160;2023-05-07T10:20:26;4.90;;;2.60;;
77453;SDS011;66538;53.150;18.160;2023-05-07T10:22:54;5.30;;;2.70;;
77453;SDS011;66538;53.150;18.160;2023-05-07T10:25:30;5.70;;;2.40;;
77453;SDS011;66538;53.150;18.160;2023-05-07T10:28:04;5.50;;;2.40;;
77453;SDS011;66538;53.150;18.160;2023-05-07T10:30:40;4.70;;;2.60;;
77453;SDS011;66538;53.150;18.160;2023-05-07T10:33:34;5.90;;;2.90;;
77453;SDS011;66538;53.150;18.160;2023-05-07T10:36:03;4.10;;;2.30;;
77453;SDS011;66538;53.150;18.160;2023-05-07T10:38:33;5.00;;;2.70;;
77453;SDS011;66538;53.150;18.160;2023-05-07T10:41:00;4.30;;;2.30;;
77453;SDS011;66538;53.150;18.160;2023-05-07T10:43:41;7.00;;;3.20;;
77453;SDS011;66538;53.150;18.160;2023-05-07T10:51:34;5.40;;;2.60;;
77453;SDS011;66538;53.150;18.160;2023-05-07T10:56:41;5.50;;;2.70;;
77453;SDS011;66538;53.150;18.160;2023-05-07T11:02:04;4.80;;;2.20;;
77453;SDS011;66538;53.150;18.160;2023-05-07T11:04:37;4.90;;;2.60;;
77453;SDS011;66538;53.150;18.160;2023-05-07T11:07:27;4.40;;;2.30;;
77453;SDS011;66538;53.150;18.160;2023-05-07T11:09:58;5.20;;;2.50;;
77453;SDS011;66538;53.150;18.160;2023-05-07T11:12:51;5.20;;;2.90;;
77453;SDS011;66538;53.150;18.160;2023-05-07T11:15:44;5.40;;;2.50;;
77453;SDS011;66538;53.150;18.160;2023-05-07T11:18:20;4.20;;;2.40;;
77453;SDS011;66538;53.150;18.160;2023-05-07T11:20:48;3.50;;;1.60;;
77453;SDS011;66538;53.150;18.160;2023-05-07T11:26:16;3.30;;;1.60;;
77453;SDS011;66538;53.150;18.160;2023-05-07T11:28:43;3.80;;;2.00;;
77453;SDS011;66538;53.150;18.160;2023-05-07T11:31:11;4.30;;;2.40;;
77453;SDS011;66538;53.150;18.160;2023-05-07T11:33:38;3.50;;;2.00;;
77453;SDS011;66538;53.150;18.160;2023-05-07T11:36:07;5.60;;;2.80;;
77453;SDS011;66538;53.150;18.160;2023-05-07T11:38:38;4.90;;;2.40;;
77453;SDS011;66538;53.150;18.160;2023-05-07T11:41:05;4.50;;;2.60;;
77453;SDS011;66538;53.150;18.160;2023-05-07T11:43:32;4.40;;;2.20;;
77453;SDS011;66538;53.150;18.160;2023-05-07T11:46:08;4.70;;;2.20;;
77453;SDS011;66538;53.150;18.160;2023-05-07T11:48:36;4.60;;;2.30;;
77453;SDS011;66538;53.150;18.160;2023-05-07T11:51:04;4.00;;;2.20;;
77453;SDS011;66538;53.150;18.160;2023-05-07T11:53:36;4.40;;;2.10;;
77453;SDS011;66538;53.150;18.160;2023-05-07T11:56:12;4.40;;;2.40;;
77453;SDS011;66538;53.150;18.160;2023-05-07T11:58:40;4.20;;;2.40;;
77453;SDS011;66538;53.150;18.160;2023-05-07T12:01:08;5.60;;;3.00;;
77453;SDS011;66538;53.150;18.160;2023-05-07T12:03:37;4.50;;;2.20;;
77453;SDS011;66538;53.150;18.160;2023-05-07T12:06:08;5.10;;;2.60;;
77453;SDS011;66538;53.150;18.160;2023-05-07T12:08:39;3.80;;;2.10;;
77453;SDS011;66538;53.150;18.160;2023-05-07T12:11:08;4.40;;;2.40;;
77453;SDS011;66538;53.150;18.160;2023-05-07T12:13:37;5.10;;;2.50;;
77453;SDS011;66538;53.150;18.160;2023-05-07T12:16:05;4.70;;;2.50;;
77453;SDS011;66538;53.150;18.160;2023-05-07T12:18:35;3.80;;;1.50;;
77453;SDS011;66538;53.150;18.160;2023-05-07T12:21:03;4.10;;;2.10;;
77453;SDS011;66538;53.150;18.160;2023-05-07T12:23:31;5.10;;;2.20;;
77453;SDS011;66538;53.150;18.160;2023-05-07T12:25:58;5.40;;;2.30;;
77453;SDS011;66538;53.150;18.160;2023-05-07T12:28:25;5.00;;;2.70;;
77453;SDS011;66538;53.150;18.160;2023-05-07T12:30:52;5.70;;;2.30;;
77453;SDS011;66538;53.150;18.160;2023-05-07T12:33:23;5.70;;;2.70;;
77453;SDS011;66538;53.150;18.160;2023-05-07T12:35:52;4.80;;;2.60;;
77453;SDS011;66538;53.150;18.160;2023-05-07T12:38:20;5.10;;;2.20;;
77453;SDS011;66538;53.150;18.160;2023-05-07T12:40:47;4.30;;;2.20;;
77453;SDS011;66538;53.150;18.160;2023-05-07T12:43:18;4.10;;;2.30;;
77453;SDS011;66538;53.150;18.160;2023-05-07T12:45:46;3.90;;;1.80;;
77453;SDS011;66538;53.150;18.160;2023-05-07T12:48:14;5.10;;;2.30;;
77453;SDS011;66538;53.150;18.160;2023-05-07T12:50:41;7.50;;;2.40;;
77453;SDS011;66538;53.150;18.160;2023-05-07T12:53:10;4.30;;;1.80;;
77453;SDS011;66538;53.150;18.160;2023-05-07T12:55:42;5.40;;;2.10;;
77453;SDS011;66538;53.150;18.160;2023-05-07T12:58:32;4.60;;;2.00;;
77453;SDS011;66538;53.150;18.160;2023-05-07T13:01:00;5.00;;;2.20;;
77453;SDS011;66538;53.150;18.160;2023-05-07T13:03:34;4.00;;;2.10;;
77453;SDS011;66538;53.150;18.160;2023-05-07T13:08:30;4.00;;;1.90;;
77453;SDS011;66538;53.150;18.160;2023-05-07T13:10:58;3.80;;;1.90;;
77453;SDS011;66538;53.150;18.160;2023-05-07T13:13:33;7.10;;;3.40;;
77453;SDS011;66538;53.150;18.160;2023-05-07T13:16:01;4.20;;;2.30;;
77453;SDS011;66538;53.150;18.160;2023-05-07T13:18:29;4.40;;;2.70;;
77453;SDS011;66538;53.150;18.160;2023-05-07T13:20:57;4.70;;;2.30;;
77453;SDS011;66538;53.150;18.160;2023-05-07T13:23:24;3.50;;;1.90;;
77453;SDS011;66538;53.150;18.160;2023-05-07T13:25:51;4.70;;;1.90;;
77453;SDS011;66538;53.150;18.160;2023-05-07T13:28:20;4.00;;;2.10;;
77453;SDS011;66538;53.150;18.160;2023-05-07T13:30:47;6.30;;;2.20;;
77453;SDS011;66538;53.150;18.160;2023-05-07T13:33:14;4.20;;;2.30;;
77453;SDS011;66538;53.150;18.160;2023-05-07T13:35:42;4.60;;;2.00;;
77453;SDS011;66538;53.150;18.160;2023-05-07T13:38:08;5.90;;;2.20;;
77453;SDS011;66538;53.150;18.160;2023-05-07T13:40:35;4.40;;;2.40;;
77453;SDS011;66538;53.150;18.160;2023-05-07T13:43:02;3.80;;;2.10;;
77453;SDS011;66538;53.150;18.160;2023-05-07T13:45:29;3.70;;;2.00;;
77453;SDS011;66538;53.150;18.160;2023-05-07T13:47:56;4.20;;;1.90;;
77453;SDS011;66538;53.150;18.160;2023-05-07T13:50:23;3.90;;;1.80;;
77453;SDS011;66538;53.150;18.160;2023-05-07T13:52:50;3.50;;;2.20;;
77453;SDS011;66538;53.150;18.160;2023-05-07T13:55:17;4.80;;;2.10;;
77453;SDS011;66538;53.150;18.160;2023-05-07T13:57:45;6.60;;;2.30;;
77453;SDS011;66538;53.150;18.160;2023-05-07T14:00:13;4.10;;;1.80;;
77453;SDS011;66538;53.150;18.160;2023-05-07T14:02:42;2.90;;;1.50;;
77453;SDS011;66538;53.150;18.160;2023-05-07T14:05:09;4.50;;;2.10;;
77453;SDS011;66538;53.150;18.160;2023-05-07T14:07:36;3.80;;;1.90;;
77453;SDS011;66538;53.150;18.160;2023-05-07T14:10:03;3.70;;;2.00;;
77453;SDS011;66538;53.150;18.160;2023-05-07T14:12:31;5.00;;;2.00;;
77453;SDS011;66538;53.150;18.160;2023-05-07T14:14:59;4.00;;;2.10;;
77453;SDS011;66538;53.150;18.160;2023-05-07T14:17:26;3.70;;;2.10;;
77453;SDS011;66538;53.150;18.160;2023-05-07T14:22:21;4.20;;;2.60;;
77453;SDS011;66538;53.150;18.160;2023-05-07T14:24:49;4.40;;;2.10;;
77453;SDS011;66538;53.150;18.160;2023-05-07T14:27:16;4.90;;;2.00;;
77453;SDS011;66538;53.150;18.160;2023-05-07T14:29:43;3.40;;;2.00;;
77453;SDS011;66538;53.150;18.160;2023-05-07T14:32:11;4.00;;;2.00;;
77453;SDS011;66538;53.150;18.160;2023-05-07T14:34:38;3.90;;;2.30;;
77453;SDS011;66538;53.150;18.160;2023-05-07T14:37:07;3.80;;;2.20;;
77453;SDS011;66538;53.150;18.160;2023-05-07T14:39:34;3.10;;;1.70;;
77453;SDS011;66538;53.150;18.160;2023-05-07T14:42:01;3.70;;;2.10;;
77453;SDS011;66538;53.150;18.160;2023-05-07T14:44:27;3.80;;;2.00;;
77453;SDS011;66538;53.150;18.160;2023-05-07T14:46:54;3.40;;;1.80;;
77453;SDS011;66538;53.150;18.160;2023-05-07T14:51:48;4.40;;;1.90;;
77453;SDS011;66538;53.150;18.160;2023-05-07T14:54:15;3.10;;;1.70;;
77453;SDS011;66538;53.150;18.160;2023-05-07T14:56:41;4.60;;;1.90;;
77453;SDS011;66538;53.150;18.160;2023-05-07T14:59:08;4.60;;;2.00;;
77453;SDS011;66538;53.150;18.160;2023-05-07T15:01:35;6.80;;;2.00;;